Time;durP1;ratioP1;P1;durP2;ratioP2;P2;SDS_P1;SDS_P2;PMS_P1;PMS_P2;Temp;Humidity;BMP_temperature;BMP_pressure;BME280_temperature;BME280_humidity;BME280_pressure;Samples;Min_cycle;Max_cycle;Signal;HPM_P1;HPM_P2
2024/01/25 00:01:10;;;;;;;0.00;0.00;;;10.00;99.90;;;;;;4994365;28;20152;-63
2024/01/25 00:03:36;;;;;;;0.00;0.00;;;10.00;99.90;;;;;;4996550;28;20021;-65
2024/01/25 00:06:02;;;;;;;0.00;0.00;;;10.00;99.90;;;;;;5000875;28;20030;-63
2024/01/25 00:08:28;;;;;;;0.00;0.00;;;10.00;99.90;;;;;;4995631;28;20038;-63
2024/01/25 00:10:54;;;;;;;0.00;0.00;;;10.00;99.90;;;;;;5000974;28;20084;-63
2024/01/25 00:13:19;;;;;;;0.00;0.00;;;10.00;99.90;;;;;;4996643;28;20037;-63
2024/01/25 00:15:45;;;;;;;0.00;0.00;;;10.00;99.90;;;;;;4996426;28;20026;-63
2024/01/25 00:18:11;;;;;;;0.00;0.00;;;10.00;99.90;;;;;;4997162;28;20037;-62
2024/01/25 00:20:36;;;;;;;0.00;0.00;;;10.00;99.90;;;;;;5001419;28;20084;-63
2024/01/25 00:23:02;;;;;;;0.00;0.00;;;10.00;99.90;;;;;;4996173;28;20037;-62
2024/01/25 00:25:28;;;;;;;0.00;0.00;;;9.90;99.90;;;;;;4996786;28;20033;-64
2024/01/25 00:27:53;;;;;;;0.00;0.00;;;9.90;99.90;;;;;;4995337;28;20709;-66
2024/01/25 00:30:19;;;;;;;0.00;0.00;;;9.90;99.90;;;;;;4999194;28;20018;-64
2024/01/25 00:32:45;;;;;;;0.00;0.00;;;10.00;99.90;;;;;;4993130;28;20029;-62
2024/01/25 00:35:13;;;;;;;0.00;0.00;;;10.00;99.90;;;;;;4990742;28;20029;-63
2024/01/25 00:37:40;;;;;;;0.00;0.00;;;9.90;99.90;;;;;;4994111;28;20409;-63
2024/01/25 00:40:08;;;;;;;0.00;0.00;;;9.90;99.90;;;;;;4998600;28;20468;-64
2024/01/25 00:42:42;;;;;;;0.00;0.00;;;9.90;99.90;;;;;;4998639;28;20026;-63
2024/01/25 00:45:10;;;;;;;0.00;0.00;;;9.90;99.90;;;;;;5030329;28;20037;-63
2024/01/25 00:47:36;;;;;;;0.00;0.00;;;9.90;99.90;;;;;;4996969;28;20465;-63
2024/01/25 00:50:03;;;;;;;0.00;0.00;;;9.90;99.90;;;;;;4999974;28;20062;-63
2024/01/25 00:52:29;;;;;;;0.00;0.00;;;9.90;99.90;;;;;;4994067;28;20083;-63
2024/01/25 00:54:56;;;;;;;0.00;0.00;;;9.90;99.90;;;;;;4996326;28;20431;-64
2024/01/25 00:57:22;;;;;;;0.00;0.00;;;9.80;99.90;;;;;;5001147;28;20037;-63
2024/01/25 00:59:49;;;;;;;0.00;0.00;;;9.80;99.90;;;;;;4997891;28;20049;-63
2024/01/25 01:02:15;;;;;;;0.00;0.00;;;9.90;99.90;;;;;;4995458;28;20114;-64
2024/01/25 01:04:41;;;;;;;0.00;0.00;;;9.90;99.90;;;;;;4998496;28;20109;-64
2024/01/25 01:07:07;;;;;;;0.15;0.15;;;9.90;99.90;;;;;;4998821;28;20446;-63
2024/01/25 01:09:33;;;;;;;0.00;0.00;;;9.90;99.90;;;;;;4998232;28;20014;-63
2024/01/25 01:11:59;;;;;;;0.00;0.00;;;9.90;99.90;;;;;;4995343;28;20026;-62
2024/01/25 01:14:24;;;;;;;0.00;0.00;;;9.90;99.90;;;;;;4998211;28;20033;-63
2024/01/25 01:16:50;;;;;;;0.00;0.00;;;9.90;99.90;;;;;;4999244;28;20032;-64
2024/01/25 01:19:16;;;;;;;0.00;0.00;;;9.80;99.90;;;;;;4997905;28;20383;-63
2024/01/25 01:21:43;;;;;;;0.00;0.00;;;9.80;99.90;;;;;;5000542;28;20040;-64
2024/01/25 01:24:12;;;;;;;0.00;0.00;;;9.80;99.90;;;;;;5002697;28;20057;-65
2024/01/25 01:26:38;;;;;;;0.00;0.00;;;9.80;99.90;;;;;;5013823;28;20033;-63
2024/01/25 01:29:04;;;;;;;0.00;0.00;;;9.80;99.90;;;;;;4997804;28;20029;-64
2024/01/25 01:31:30;;;;;;;0.00;0.00;;;9.80;99.90;;;;;;5000514;28;20303;-63
2024/01/25 01:33:57;;;;;;;0.00;0.00;;;9.70;99.90;;;;;;5001104;28;20287;-64
2024/01/25 01:36:23;;;;;;;0.00;0.00;;;9.70;99.90;;;;;;4999083;28;20273;-63
2024/01/25 01:38:49;;;;;;;0.00;0.00;;;9.70;99.90;;;;;;4997719;28;20432;-64
2024/01/25 01:41:15;;;;;;;0.00;0.00;;;9.70;99.90;;;;;;4994698;28;20253;-63
2024/01/25 01:43:41;;;;;;;0.00;0.00;;;9.70;99.90;;;;;;5018870;28;20046;-63
2024/01/25 01:46:33;;;;;;;0.00;0.00;;;9.70;99.90;;;;;;4995037;28;20038;-63
2024/01/25 01:48:58;;;;;;;0.00;0.00;;;9.70;99.90;;;;;;4989498;28;20045;-63
2024/01/25 01:51:24;;;;;;;0.00;0.00;;;9.70;99.90;;;;;;4997138;28;20405;-63
2024/01/25 01:53:51;;;;;;;0.00;0.00;;;9.70;99.90;;;;;;4997552;28;20029;-63
2024/01/25 01:56:17;;;;;;;0.00;0.00;;;9.70;99.90;;;;;;4997563;28;20154;-63
2024/01/25 01:58:43;;;;;;;0.00;0.00;;;9.70;99.90;;;;;;4997074;28;20042;-64
2024/01/25 02:01:09;;;;;;;0.00;0.00;;;9.70;99.90;;;;;;4999260;28;20171;-65
2024/01/25 02:03:35;;;;;;;0.00;0.00;;;9.70;99.90;;;;;;4999526;28;20038;-63
2024/01/25 02:06:02;;;;;;;0.00;0.00;;;9.70;99.90;;;;;;4992013;28;20658;-64
2024/01/25 02:08:31;;;;;;;0.00;0.00;;;9.70;99.90;;;;;;5018833;28;20069;-63
2024/01/25 02:10:57;;;;;;;0.00;0.00;;;9.60;99.90;;;;;;4998187;28;20421;-62
2024/01/25 02:13:22;;;;;;;0.00;0.00;;;9.60;99.90;;;;;;4992889;28;20041;-63
2024/01/25 02:15:48;;;;;;;0.00;0.00;;;9.60;99.90;;;;;;4999326;28;20022;-62
2024/01/25 02:18:14;;;;;;;0.00;0.00;;;9.60;99.90;;;;;;4994688;28;20033;-63
2024/01/25 02:20:40;;;;;;;0.00;0.00;;;9.60;99.90;;;;;;4998712;28;20358;-64
2024/01/25 02:23:06;;;;;;;0.00;0.00;;;9.60;99.90;;;;;;4999382;28;20381;-62
2024/01/25 02:25:32;;;;;;;0.00;0.00;;;9.60;99.90;;;;;;4998124;28;20042;-63
2024/01/25 02:27:57;;;;;;;0.00;0.00;;;9.60;99.90;;;;;;4998405;28;20485;-64
2024/01/25 02:30:23;;;;;;;0.10;0.10;;;9.60;99.90;;;;;;4998230;28;20029;-64
2024/01/25 02:32:49;;;;;;;0.00;0.00;;;9.60;99.90;;;;;;4998693;28;20022;-62
2024/01/25 02:35:14;;;;;;;0.00;0.00;;;9.60;99.90;;;;;;4998941;28;20026;-62
2024/01/25 02:37:40;;;;;;;0.00;0.00;;;9.60;99.90;;;;;;5022836;28;20530;-63
2024/01/25 02:40:06;;;;;;;0.10;0.10;;;9.60;99.90;;;;;;4997924;28;20057;-64
2024/01/25 02:42:32;;;;;;;0.00;0.00;;;9.50;99.90;;;;;;4998950;28;20030;-64
2024/01/25 02:44:58;;;;;;;0.00;0.00;;;9.50;99.90;;;;;;5022939;28;20030;-64
2024/01/25 02:47:23;;;;;;;0.00;0.00;;;9.50;99.90;;;;;;4997272;28;20082;-63
2024/01/25 02:49:49;;;;;;;0.00;0.00;;;9.50;99.90;;;;;;4998759;28;20025;-63
2024/01/25 02:52:15;;;;;;;0.00;0.00;;;9.50;99.90;;;;;;4998941;28;20029;-63
2024/01/25 02:54:40;;;;;;;0.00;0.00;;;9.50;99.90;;;;;;4993588;28;20080;-63
2024/01/25 02:57:06;;;;;;;0.00;0.00;;;9.50;99.90;;;;;;4997727;28;20029;-64
2024/01/25 02:59:32;;;;;;;0.00;0.00;;;9.50;99.90;;;;;;5022886;28;20116;-63
2024/01/25 03:01:57;;;;;;;0.00;0.00;;;9.50;99.90;;;;;;4996597;28;20039;-64
2024/01/25 03:04:23;;;;;;;0.00;0.00;;;9.50;99.90;;;;;;4997172;28;20018;-64
2024/01/25 03:06:49;;;;;;;0.00;0.00;;;9.50;99.90;;;;;;4994707;28;20030;-63
2024/01/25 03:09:15;;;;;;;0.00;0.00;;;9.50;99.90;;;;;;4996368;28;20037;-63
2024/01/25 03:11:40;;;;;;;0.00;0.00;;;9.50;99.90;;;;;;4993267;28;20136;-64
2024/01/25 03:14:06;;;;;;;0.00;0.00;;;9.50;99.90;;;;;;4996272;28;20053;-64
2024/01/25 03:16:32;;;;;;;0.00;0.00;;;9.40;99.90;;;;;;4996391;28;20034;-63
2024/01/25 03:18:57;;;;;;;0.00;0.00;;;9.40;99.90;;;;;;4993200;28;20092;-63
2024/01/25 03:21:23;;;;;;;0.00;0.00;;;9.40;99.90;;;;;;4997690;28;20030;-64
2024/01/25 03:23:48;;;;;;;0.00;0.00;;;9.40;99.90;;;;;;4994089;28;20121;-63
2024/01/25 03:26:14;;;;;;;0.00;0.00;;;9.40;99.90;;;;;;4998989;28;20104;-64
2024/01/25 03:28:40;;;;;;;0.00;0.00;;;9.40;99.90;;;;;;4993640;28;20026;-63
2024/01/25 03:31:06;;;;;;;0.00;0.00;;;9.40;99.90;;;;;;4997007;28;20718;-64
2024/01/25 03:33:32;;;;;;;0.00;0.00;;;9.40;99.90;;;;;;4997766;28;20052;-63
2024/01/25 03:36:02;;;;;;;0.00;0.00;;;9.40;99.90;;;;;;4996609;28;20022;-63
2024/01/25 03:38:28;;;;;;;0.00;0.00;;;9.30;99.90;;;;;;4996928;28;20054;-64
2024/01/25 03:40:56;;;;;;;0.00;0.00;;;9.30;99.90;;;;;;4995202;28;20442;-63
2024/01/25 03:43:23;;;;;;;0.00;0.00;;;9.40;99.90;;;;;;4994391;28;20055;-63
2024/01/25 03:45:49;;;;;;;0.00;0.00;;;9.40;99.90;;;;;;4991682;28;20030;-63
2024/01/25 03:48:15;;;;;;;0.00;0.00;;;9.40;99.90;;;;;;4996456;28;20475;-64
2024/01/25 03:50:41;;;;;;;0.00;0.00;;;9.40;99.90;;;;;;5001127;28;20033;-64
2024/01/25 03:53:07;;;;;;;0.00;0.00;;;9.30;99.90;;;;;;4997409;28;20242;-64
2024/01/25 03:55:32;;;;;;;0.00;0.00;;;9.30;99.90;;;;;;4996874;28;20105;-64
2024/01/25 03:57:58;;;;;;;0.00;0.00;;;9.30;99.90;;;;;;4993759;28;20032;-64
2024/01/25 04:00:24;;;;;;;0.00;0.00;;;9.30;99.90;;;;;;4996471;28;20367;-64
2024/01/25 04:02:50;;;;;;;0.00;0.00;;;9.20;99.90;;;;;;4996183;28;20452;-64
2024/01/25 04:05:16;;;;;;;0.00;0.00;;;9.20;99.90;;;;;;4998739;28;20073;-64
2024/01/25 04:07:42;;;;;;;0.00;0.00;;;9.20;99.90;;;;;;4997107;28;20057;-64
2024/01/25 04:10:08;;;;;;;0.00;0.00;;;9.20;99.90;;;;;;4998144;28;20113;-64
2024/01/25 04:12:34;;;;;;;0.00;0.00;;;9.30;99.90;;;;;;4993004;28;20741;-64
2024/01/25 04:14:59;;;;;;;0.00;0.00;;;9.20;99.90;;;;;;4999637;28;20030;-64
2024/01/25 04:17:25;;;;;;;0.00;0.00;;;9.20;99.90;;;;;;4996284;28;20052;-64
2024/01/25 04:19:51;;;;;;;0.00;0.00;;;9.20;99.90;;;;;;4999944;28;20072;-64
2024/01/25 04:22:16;;;;;;;0.00;0.00;;;9.20;99.90;;;;;;4996190;28;20037;-64
2024/01/25 04:24:43;;;;;;;0.00;0.00;;;9.20;99.90;;;;;;5002117;28;20033;-65
2024/01/25 04:27:10;;;;;;;0.00;0.00;;;9.20;99.90;;;;;;5000515;28;20034;-64
2024/01/25 04:29:39;;;;;;;0.00;0.00;;;9.20;99.90;;;;;;4996556;28;20099;-64
2024/01/25 04:32:05;;;;;;;0.00;0.00;;;9.20;99.90;;;;;;5000001;28;20033;-65
2024/01/25 04:34:30;;;;;;;0.00;0.00;;;9.20;99.90;;;;;;4996715;28;20939;-64
2024/01/25 04:36:56;;;;;;;0.00;0.00;;;9.20;99.90;;;;;;4999659;28;20034;-64
2024/01/25 04:39:22;;;;;;;0.00;0.00;;;9.10;99.90;;;;;;4998266;28;20022;-64
2024/01/25 04:41:48;;;;;;;0.00;0.00;;;9.10;99.90;;;;;;4997837;28;20022;-64
2024/01/25 04:44:14;;;;;;;0.00;0.00;;;9.10;99.90;;;;;;4995819;28;20361;-65
2024/01/25 04:46:40;;;;;;;0.00;0.00;;;9.10;99.90;;;;;;4998761;28;20979;-65
2024/01/25 04:49:05;;;;;;;0.00;0.00;;;9.10;99.90;;;;;;4994457;28;20034;-65
2024/01/25 04:51:31;;;;;;;0.00;0.00;;;9.10;99.90;;;;;;4998536;28;20040;-64
2024/01/25 04:53:57;;;;;;;0.00;0.00;;;9.00;99.90;;;;;;5028366;28;20050;-64
2024/01/25 04:56:22;;;;;;;0.00;0.00;;;9.10;99.90;;;;;;4999723;28;20032;-64
2024/01/25 04:58:48;;;;;;;0.00;0.00;;;9.10;99.90;;;;;;4994341;28;20109;-64
2024/01/25 05:01:13;;;;;;;0.00;0.00;;;9.10;99.90;;;;;;5000221;28;20033;-64
2024/01/25 05:03:39;;;;;;;0.00;0.00;;;9.10;99.90;;;;;;4996475;28;20034;-65
2024/01/25 05:06:05;;;;;;;0.00;0.00;;;9.10;99.90;;;;;;5000981;28;20188;-64
2024/01/25 05:08:31;;;;;;;0.00;0.00;;;9.10;99.90;;;;;;4999184;28;20029;-65
2024/01/25 05:10:57;;;;;;;0.00;0.00;;;9.10;99.90;;;;;;4999069;28;20026;-64
2024/01/25 05:13:23;;;;;;;0.00;0.00;;;9.10;99.90;;;;;;4999090;28;20100;-64
2024/01/25 05:15:48;;;;;;;0.00;0.00;;;9.00;99.90;;;;;;4995221;28;20117;-64
2024/01/25 05:18:14;;;;;;;0.00;0.00;;;9.10;99.90;;;;;;5000027;28;20030;-65
2024/01/25 05:20:40;;;;;;;0.00;0.00;;;9.10;99.90;;;;;;5003524;28;20033;-64
2024/01/25 05:23:06;;;;;;;0.00;0.00;;;9.00;99.90;;;;;;4995099;28;20018;-64
2024/01/25 05:25:32;;;;;;;0.00;0.00;;;9.00;99.90;;;;;;4999878;28;20363;-63
2024/01/25 05:27:58;;;;;;;0.00;0.00;;;9.00;99.90;;;;;;4996784;28;20128;-64
2024/01/25 05:30:27;;;;;;;0.00;0.00;;;9.00;99.90;;;;;;4999041;28;20140;-65
2024/01/25 05:32:54;;;;;;;0.00;0.00;;;9.00;99.90;;;;;;4995453;28;20026;-64
2024/01/25 05:35:20;;;;;;;0.00;0.00;;;9.00;99.90;;;;;;4998626;28;20018;-64
2024/01/25 05:37:45;;;;;;;0.00;0.00;;;9.00;99.90;;;;;;4994520;28;20025;-64
2024/01/25 05:40:12;;;;;;;0.00;0.00;;;9.10;99.90;;;;;;4999649;28;20041;-65
2024/01/25 05:42:38;;;;;;;;;;;9.10;99.90;;;;;;5010796;28;20036;-63
2024/01/25 05:45:05;;;;;;;0.00;0.00;;;9.10;99.90;;;;;;4995493;28;20308;-63
2024/01/25 05:47:30;;;;;;;;;;;9.10;99.90;;;;;;5000011;28;20030;-64
2024/01/25 05:49:56;;;;;;;0.00;0.00;;;9.10;99.90;;;;;;4996562;28;20103;-63
2024/01/25 05:52:23;;;;;;;0.00;0.00;;;9.10;99.90;;;;;;4998711;28;20014;-64
2024/01/25 05:54:50;;;;;;;0.00;0.00;;;9.00;99.90;;;;;;4994732;28;20025;-64
2024/01/25 05:57:16;;;;;;;0.00;0.00;;;9.00;99.90;;;;;;4999223;28;20034;-64
2024/01/25 05:59:42;;;;;;;0.00;0.00;;;9.00;99.90;;;;;;5003334;28;20021;-64
2024/01/25 06:02:09;;;;;;;0.00;0.00;;;9.00;99.90;;;;;;4997651;28;20547;-63
2024/01/25 06:04:34;;;;;;;;;;;8.90;99.90;;;;;;5005352;28;20034;-63
2024/01/25 06:07:00;;;;;;;0.00;0.00;;;8.90;99.90;;;;;;4997047;28;19914;-63
2024/01/25 06:09:26;;;;;;;0.00;0.00;;;8.90;99.90;;;;;;4999204;28;20030;-63
2024/01/25 06:11:52;;;;;;;0.00;0.00;;;8.90;99.90;;;;;;4999233;28;20018;-64
2024/01/25 06:14:18;;;;;;;0.00;0.00;;;8.80;99.90;;;;;;4992008;28;20034;-63
2024/01/25 06:16:44;;;;;;;0.00;0.00;;;8.80;99.90;;;;;;4998098;28;20100;-63
2024/01/25 06:19:10;;;;;;;0.00;0.00;;;8.80;99.90;;;;;;4997607;28;20041;-63
2024/01/25 06:21:37;;;;;;;0.00;0.00;;;8.70;99.90;;;;;;4996287;28;20029;-63
2024/01/25 06:24:06;;;;;;;0.28;0.28;;;8.60;99.90;;;;;;4995694;28;20378;-64
2024/01/25 06:26:32;;;;;;;0.00;0.00;;;8.60;99.90;;;;;;4995418;28;20129;-64
2024/01/25 06:28:58;;;;;;;0.00;0.00;;;8.50;99.90;;;;;;4996271;28;20038;-64
2024/01/25 06:31:27;;;;;;;0.00;0.00;;;8.60;99.90;;;;;;4997291;28;20034;-63
2024/01/25 06:33:53;;;;;;;0.00;0.00;;;8.60;99.90;;;;;;4994426;28;20083;-63
2024/01/25 06:36:22;;;;;;;0.00;0.00;;;8.50;99.90;;;;;;4997226;28;20037;-64
2024/01/25 06:38:48;;;;;;;0.00;0.00;;;8.60;99.90;;;;;;4998786;28;20052;-63
2024/01/25 06:41:15;;;;;;;0.00;0.00;;;8.50;99.90;;;;;;4997448;28;20561;-63
2024/01/25 06:43:40;;;;;;;0.00;0.00;;;8.50;99.90;;;;;;4997412;28;20532;-63
2024/01/25 06:46:07;;;;;;;0.00;0.00;;;8.50;99.90;;;;;;4994343;28;20030;-63
2024/01/25 06:48:33;;;;;;;0.00;0.00;;;8.50;99.90;;;;;;4996756;28;20136;-63
2024/01/25 06:50:59;;;;;;;0.00;0.00;;;8.60;99.90;;;;;;4998244;28;21087;-64
2024/01/25 06:53:24;;;;;;;0.00;0.00;;;8.60;99.90;;;;;;4993149;28;20026;-65
2024/01/25 06:55:50;;;;;;;0.00;0.00;;;8.60;99.90;;;;;;4997472;28;20031;-63
2024/01/25 06:58:15;;;;;;;0.00;0.00;;;8.70;99.90;;;;;;4996539;28;21473;-63
2024/01/25 07:00:42;;;;;;;0.00;0.00;;;8.70;99.90;;;;;;4995787;28;20120;-64
2024/01/25 07:03:08;;;;;;;0.00;0.00;;;8.80;99.90;;;;;;4993790;28;20111;-64
2024/01/25 07:05:35;;;;;;;0.00;0.00;;;8.80;99.90;;;;;;4994299;28;20854;-63
2024/01/25 07:08:01;;;;;;;0.00;0.00;;;8.90;99.90;;;;;;4998578;28;20026;-64
2024/01/25 07:10:27;;;;;;;0.00;0.00;;;8.90;99.90;;;;;;4992171;28;20054;-63
2024/01/25 07:12:53;;;;;;;0.00;0.00;;;8.90;99.90;;;;;;4996237;28;20045;-63
2024/01/25 07:15:19;;;;;;;0.00;0.00;;;8.90;99.90;;;;;;4997615;28;20271;-64
2024/01/25 07:17:45;;;;;;;0.00;0.00;;;8.90;99.90;;;;;;4996932;28;20029;-63
2024/01/25 07:20:11;;;;;;;0.00;0.00;;;9.10;99.90;;;;;;4996209;28;20556;-63
2024/01/25 07:22:36;;;;;;;0.00;0.00;;;9.10;99.90;;;;;;4997044;28;20026;-64
2024/01/25 07:25:02;;;;;;;0.00;0.00;;;9.40;99.90;;;;;;4998211;28;20572;-64
2024/01/25 07:27:28;;;;;;;0.00;0.00;;;9.50;99.90;;;;;;4995022;28;20113;-64
2024/01/25 07:29:54;;;;;;;0.00;0.00;;;9.60;99.90;;;;;;4996739;28;20026;-64
2024/01/25 07:32:20;;;;;;;0.00;0.00;;;9.60;99.90;;;;;;4991033;28;20088;-64
2024/01/25 07:34:45;;;;;;;0.00;0.00;;;9.50;99.90;;;;;;4994762;28;20037;-64
2024/01/25 07:37:12;;;;;;;0.00;0.00;;;9.40;99.90;;;;;;4996156;28;20025;-64
2024/01/25 07:39:38;;;;;;;0.00;0.00;;;9.30;99.90;;;;;;4994306;28;20036;-64
2024/01/25 07:42:04;;;;;;;0.00;0.00;;;9.30;99.90;;;;;;4991048;28;20656;-63
2024/01/25 07:44:29;;;;;;;0.00;0.00;;;9.30;99.90;;;;;;4996296;28;20026;-63
2024/01/25 07:46:55;;;;;;;0.00;0.00;;;9.20;99.90;;;;;;5024598;28;20022;-63
2024/01/25 07:49:21;;;;;;;0.00;0.00;;;9.20;99.90;;;;;;5000100;28;20034;-64
2024/01/25 07:51:46;;;;;;;0.00;0.00;;;9.20;99.90;;;;;;4996712;28;20783;-64
2024/01/25 07:54:13;;;;;;;0.00;0.00;;;9.20;99.90;;;;;;5004375;28;20113;-65
2024/01/25 07:56:39;;;;;;;0.00;0.00;;;9.30;99.90;;;;;;5002220;28;20033;-64
2024/01/25 07:59:05;;;;;;;0.00;0.00;;;9.30;99.90;;;;;;4997679;28;20041;-64
2024/01/25 08:01:30;;;;;;;0.00;0.00;;;9.30;99.90;;;;;;5000316;28;20820;-63
2024/01/25 08:03:56;;;;;;;0.00;0.00;;;9.30;99.90;;;;;;4999903;28;20030;-63
2024/01/25 08:06:23;;;;;;;0.00;0.00;;;9.30;99.90;;;;;;4996174;28;20138;-63
2024/01/25 08:08:48;;;;;;;;;;;9.40;99.90;;;;;;5000973;28;20075;-63
2024/01/25 08:11:18;;;;;;;0.00;0.00;;;9.40;99.90;;;;;;5002404;28;19905;-64
2024/01/25 08:13:44;;;;;;;0.00;0.00;;;9.40;99.90;;;;;;5007110;28;20022;-63
2024/01/25 08:16:13;;;;;;;0.00;0.00;;;9.50;99.90;;;;;;5001031;28;20041;-64
2024/01/25 08:18:39;;;;;;;0.00;0.00;;;9.70;99.90;;;;;;4997650;28;20025;-64
2024/01/25 08:21:05;;;;;;;0.00;0.00;;;9.90;99.90;;;;;;5001697;28;20022;-64
2024/01/25 08:23:31;;;;;;;0.00;0.00;;;9.90;99.90;;;;;;5001129;28;20095;-63
2024/01/25 08:25:57;;;;;;;0.00;0.00;;;9.90;99.90;;;;;;4996798;28;20513;-64
2024/01/25 08:28:22;;;;;;;0.00;0.00;;;10.00;99.90;;;;;;4999701;28;20056;-64
2024/01/25 08:30:48;;;;;;;0.00;0.00;;;10.00;99.90;;;;;;4995632;28;20265;-64
2024/01/25 08:33:16;;;;;;;0.00;0.00;;;10.00;99.90;;;;;;5000596;28;20049;-64
2024/01/25 08:35:42;;;;;;;0.00;0.00;;;10.00;99.90;;;;;;5000200;28;20030;-64
2024/01/25 08:38:08;;;;;;;0.00;0.00;;;10.00;99.90;;;;;;4993224;28;20703;-64
2024/01/25 08:40:34;;;;;;;;;;;10.00;99.90;;;;;;5000562;28;20218;-64
2024/01/25 08:43:00;;;;;;;0.00;0.00;;;10.10;99.90;;;;;;4995611;28;20004;-63
2024/01/25 08:45:25;;;;;;;0.00;0.00;;;10.00;99.90;;;;;;4998033;28;20021;-64
2024/01/25 08:47:52;;;;;;;0.00;0.00;;;10.10;99.90;;;;;;4997935;28;20025;-64
2024/01/25 08:50:18;;;;;;;0.00;0.00;;;10.10;99.90;;;;;;5000377;28;20261;-64
2024/01/25 08:52:43;;;;;;;0.00;0.00;;;10.10;99.90;;;;;;5024733;28;20388;-64
2024/01/25 08:55:10;;;;;;;0.00;0.00;;;10.20;99.90;;;;;;4997001;28;20026;-64
2024/01/25 08:57:36;;;;;;;0.00;0.00;;;10.20;99.90;;;;;;5015225;28;20396;-64
2024/01/25 09:00:08;;;;;;;0.00;0.00;;;10.20;99.90;;;;;;4998574;28;20048;-64
2024/01/25 09:02:34;;;;;;;0.00;0.00;;;10.70;99.90;;;;;;4999398;28;20451;-64
2024/01/25 09:05:00;;;;;;;0.00;0.00;;;10.90;99.90;;;;;;5001223;28;20073;-64
2024/01/25 09:07:25;;;;;;;0.00;0.00;;;11.20;99.90;;;;;;4998189;28;20125;-65
2024/01/25 09:09:51;;;;;;;0.83;0.20;;;12.40;99.90;;;;;;4998747;28;20100;-64
2024/01/25 09:12:17;;;;;;;0.10;0.10;;;14.40;97.90;;;;;;5000982;28;20084;-64
2024/01/25 09:14:42;;;;;;;0.00;0.00;;;16.80;94.30;;;;;;5000462;28;20096;-64
2024/01/25 09:17:09;;;;;;;0.00;0.00;;;18.20;91.50;;;;;;4997256;28;20068;-64
2024/01/25 09:19:35;;;;;;;0.00;0.00;;;17.70;88.70;;;;;;5000142;28;20088;-69
2024/01/25 09:22:04;;;;;;;0.00;0.00;;;17.50;90.00;;;;;;4997010;28;20026;-65
2024/01/25 09:24:35;;;;;;;0.00;0.00;;;17.50;88.00;;;;;;4998582;28;20025;-65
2024/01/25 09:27:02;;;;;;;0.00;0.00;;;16.40;89.90;;;;;;5000442;28;20140;-64
2024/01/25 09:29:28;;;;;;;0.00;0.00;;;16.70;90.50;;;;;;4994229;28;20116;-64
2024/01/25 09:31:54;;;;;;;0.05;0.05;;;15.90;90.60;;;;;;5000627;28;20026;-64
2024/01/25 09:34:21;;;;;;;0.00;0.00;;;15.70;90.40;;;;;;4998432;28;20033;-64
2024/01/25 09:36:47;;;;;;;0.00;0.00;;;15.50;90.90;;;;;;5000637;28;20025;-64
2024/01/25 09:39:14;;;;;;;0.00;0.00;;;17.10;90.60;;;;;;5000457;28;20030;-65
2024/01/25 09:41:40;;;;;;;1.25;0.20;;;18.90;86.40;;;;;;5000628;28;20041;-65
2024/01/25 09:44:09;;;;;;;;;;;20.00;82.00;;;;;;5012215;28;20548;-64
2024/01/25 09:46:35;;;;;;;0.00;0.00;;;18.50;81.30;;;;;;4998440;28;19910;-64
2024/01/25 09:49:02;;;;;;;0.00;0.00;;;17.50;82.90;;;;;;4994880;28;20038;-64
2024/01/25 09:51:33;;;;;;;0.00;0.00;;;17.40;82.70;;;;;;4997900;28;20041;-63
2024/01/25 09:54:00;;;;;;;0.00;0.00;;;16.70;81.90;;;;;;5000292;28;20033;-63
2024/01/25 09:56:31;;;;;;;0.00;0.00;;;16.80;83.40;;;;;;4999327;28;20050;-63
2024/01/25 09:58:57;;;;;;;0.00;0.00;;;17.20;81.60;;;;;;4994327;28;20116;-63
2024/01/25 10:01:22;;;;;;;0.00;0.00;;;16.90;81.10;;;;;;5000042;28;20022;-64
2024/01/25 10:03:48;;;;;;;0.00;0.00;;;16.60;81.80;;;;;;4999930;28;20041;-66
2024/01/25 10:06:15;;;;;;;0.00;0.00;;;17.40;78.50;;;;;;4999202;28;20024;-63
2024/01/25 10:08:41;;;;;;;0.00;0.00;;;16.40;77.00;;;;;;4999694;28;20084;-64
2024/01/25 10:11:08;;;;;;;0.00;0.00;;;15.10;77.80;;;;;;5000194;28;20462;-63
2024/01/25 10:13:44;;;;;;;0.00;0.00;;;14.10;79.80;;;;;;4993092;28;20076;-63
2024/01/25 10:16:14;;;;;;;0.00;0.00;;;13.60;82.60;;;;;;4994805;28;20018;-63
2024/01/25 10:18:41;;;;;;;0.00;0.00;;;13.30;84.50;;;;;;4995614;28;20097;-63
2024/01/25 10:21:07;;;;;;;0.00;0.00;;;12.90;85.80;;;;;;4996897;28;20021;-63
2024/01/25 10:23:32;;;;;;;0.00;0.00;;;12.60;87.50;;;;;;4998212;28;20386;-64
2024/01/25 10:25:58;;;;;;;0.00;0.00;;;12.60;89.90;;;;;;4993900;28;20057;-64
2024/01/25 10:28:28;;;;;;;0.00;0.00;;;12.60;90.20;;;;;;4998527;28;20291;-63
2024/01/25 10:31:01;;;;;;;0.00;0.00;;;13.60;90.80;;;;;;5000979;28;20018;-62
2024/01/25 10:33:27;;;;;;;0.00;0.00;;;13.70;91.50;;;;;;4994473;28;20033;-63
2024/01/25 10:36:01;;;;;;;0.00;0.00;;;13.90;91.20;;;;;;4999205;28;20425;-63
2024/01/25 10:38:31;;;;;;;0.00;0.00;;;13.50;91.90;;;;;;4999778;28;20036;-64
2024/01/25 10:41:00;;;;;;;0.00;0.00;;;14.20;91.70;;;;;;4997496;28;20036;-63
2024/01/25 10:43:26;;;;;;;0.00;0.00;;;14.90;91.30;;;;;;4997753;28;20036;-63
2024/01/25 10:45:55;;;;;;;0.00;0.00;;;14.60;91.20;;;;;;4997223;28;20026;-62
2024/01/25 10:48:21;;;;;;;0.00;0.00;;;14.20;91.60;;;;;;4993013;28;20284;-63
2024/01/25 10:50:48;;;;;;;0.00;0.00;;;13.90;92.00;;;;;;4998496;28;20033;-64
2024/01/25 10:53:15;;;;;;;;;;;14.10;92.50;;;;;;4998357;28;20468;-64
2024/01/25 10:55:41;;;;;;;0.00;0.00;;;14.10;92.50;;;;;;4994619;28;20461;-65
2024/01/25 10:58:08;;;;;;;0.00;0.00;;;15.00;91.80;;;;;;4999904;28;20029;-64
2024/01/25 11:00:35;;;;;;;0.00;0.00;;;14.30;92.00;;;;;;4997956;28;20104;-64
2024/01/25 11:03:01;;;;;;;0.00;0.00;;;13.70;92.70;;;;;;5008843;28;20468;-64
2024/01/25 11:05:27;;;;;;;0.00;0.00;;;13.20;93.60;;;;;;4996837;28;20052;-64
2024/01/25 11:07:54;;;;;;;0.00;0.00;;;13.10;93.90;;;;;;4996733;28;20172;-64
2024/01/25 11:10:22;;;;;;;0.00;0.00;;;12.80;94.00;;;;;;4995558;28;20022;-64
2024/01/25 11:12:55;;;;;;;0.00;0.00;;;13.30;93.90;;;;;;4996417;28;20515;-64
2024/01/25 11:15:31;;;;;;;0.32;0.32;;;13.30;94.00;;;;;;4996519;28;20061;-64
2024/01/25 11:17:57;;;;;;;0.00;0.00;;;13.00;94.00;;;;;;4993263;28;20159;-64
2024/01/25 11:20:28;;;;;;;0.00;0.00;;;12.90;94.40;;;;;;4996501;28;20358;-64
2024/01/25 11:23:00;;;;;;;0.00;0.00;;;13.00;94.90;;;;;;4995712;28;20030;-65
2024/01/25 11:25:30;;;;;;;0.00;0.00;;;13.20;94.30;;;;;;4993689;28;20072;-64
2024/01/25 11:27:56;;;;;;;0.00;0.00;;;13.20;94.30;;;;;;4997275;28;20065;-64
2024/01/25 11:30:22;;;;;;;0.00;0.00;;;13.60;93.90;;;;;;4997788;28;20030;-64
2024/01/25 11:32:48;;;;;;;0.00;0.00;;;13.60;93.40;;;;;;4995867;28;20975;-64
2024/01/25 11:35:16;;;;;;;0.00;0.00;;;13.40;93.60;;;;;;4996467;28;20547;-64
2024/01/25 11:37:49;;;;;;;0.00;0.00;;;13.60;93.60;;;;;;4997852;28;20112;-65
2024/01/25 11:40:16;;;;;;;0.00;0.00;;;13.60;93.30;;;;;;4995692;28;20032;-63
2024/01/25 11:42:43;;;;;;;0.00;0.00;;;13.70;92.80;;;;;;4996499;28;20385;-64
2024/01/25 11:45:10;;;;;;;0.00;0.00;;;13.50;92.90;;;;;;4990059;28;20441;-64
2024/01/25 11:47:37;;;;;;;0.00;0.00;;;13.50;92.90;;;;;;4998199;28;20445;-65
2024/01/25 11:50:04;;;;;;;0.00;0.00;;;13.30;93.00;;;;;;4993097;28;20029;-64
2024/01/25 11:52:33;;;;;;;0.00;0.00;;;13.40;93.10;;;;;;4996089;28;20022;-64
2024/01/25 11:54:58;;;;;;;0.00;0.00;;;13.50;92.50;;;;;;5015308;28;20426;-64
2024/01/25 11:57:24;;;;;;;0.00;0.00;;;13.30;92.60;;;;;;4996620;28;20026;-64
2024/01/25 11:59:50;;;;;;;0.00;0.00;;;13.00;92.80;;;;;;4998593;28;20378;-64
2024/01/25 12:02:16;;;;;;;0.00;0.00;;;13.00;93.10;;;;;;4996017;28;20180;-61
2024/01/25 12:04:42;;;;;;;0.00;0.00;;;12.90;93.60;;;;;;4999387;28;20698;-63
2024/01/25 12:07:07;;;;;;;0.00;0.00;;;12.80;93.40;;;;;;5000810;28;20040;-62
2024/01/25 12:09:33;;;;;;;0.00;0.00;;;12.90;93.60;;;;;;4994298;28;20433;-62
2024/01/25 12:12:03;;;;;;;0.00;0.00;;;12.90;93.20;;;;;;5000009;28;20026;-64
2024/01/25 12:14:28;;;;;;;0.00;0.00;;;12.50;93.30;;;;;;4994626;28;20272;-62
2024/01/25 12:16:57;;;;;;;0.00;0.00;;;12.60;93.60;;;;;;5000580;28;20789;-62
2024/01/25 12:19:23;;;;;;;0.00;0.00;;;12.50;93.50;;;;;;4995564;28;20588;-62
2024/01/25 12:21:49;;;;;;;0.00;0.00;;;12.50;93.80;;;;;;4997508;28;20018;-63
2024/01/25 12:24:14;;;;;;;0.00;0.00;;;12.30;93.40;;;;;;4995213;28;20080;-62
2024/01/25 12:26:41;;;;;;;0.00;0.00;;;12.30;93.70;;;;;;4990359;28;20261;-62
2024/01/25 12:29:08;;;;;;;0.00;0.00;;;12.50;93.30;;;;;;4997791;28;20120;-63
2024/01/25 12:31:34;;;;;;;0.00;0.00;;;12.60;93.40;;;;;;4995062;28;20466;-62
2024/01/25 12:34:02;;;;;;;0.00;0.00;;;12.60;93.30;;;;;;4997059;28;20032;-63
2024/01/25 12:36:28;;;;;;;0.00;0.00;;;12.50;93.60;;;;;;4998901;28;20286;-62
2024/01/25 12:38:54;;;;;;;0.00;0.00;;;12.40;93.30;;;;;;5001978;28;20529;-65
2024/01/25 12:41:19;;;;;;;0.10;0.10;;;12.50;95.10;;;;;;5001999;28;20029;-64
2024/01/25 12:43:45;;;;;;;0.00;0.00;;;12.70;94.70;;;;;;5001842;28;20029;-63
2024/01/25 12:46:12;;;;;;;0.00;0.00;;;12.80;93.20;;;;;;5002838;28;20116;-63
2024/01/25 12:48:37;;;;;;;;;;;13.00;92.40;;;;;;5003742;28;20036;-63
2024/01/25 12:51:03;;;;;;;0.00;0.00;;;13.00;92.10;;;;;;4999898;28;19910;-62